Time;durP1;ratioP1;P1;durP2;ratioP2;P2;SDS_P1;SDS_P2;PMS_P1;PMS_P2;Temp;Humidity;BMP_temperature;BMP_pressure;BME280_temperature;BME280_humidity;BME280_pressure;Samples;Min_cycle;Max_cycle;Signal;HPM_P1;HPM_P2
2023/07/22 00:02:00;;;;;;;4.57;2.13;;;;;;;14.76;97.02;149793.91;4948440;28;20234;-67
2023/07/22 00:04:27;;;;;;;3.07;1.80;;;;;;;14.86;95.74;149817.63;4950690;28;20231;-67
2023/07/22 00:06:53;;;;;;;5.57;2.10;;;;;;;14.99;93.23;149850.09;4954426;28;20226;-67
2023/07/22 00:09:20;;;;;;;3.40;1.90;;;;;;;15.07;93.99;149867.59;4955839;28;20301;-67
2023/07/22 00:11:53;;;;;;;4.30;2.40;;;;;;;15.08;93.71;149870.09;4959902;28;20248;-67
2023/07/22 00:14:21;;;;;;;7.17;1.97;;;;;;;15.15;93.13;149887.56;4948848;28;20226;-67
2023/07/22 00:16:53;;;;;;;6.80;1.90;;;;;;;15.21;92.74;149902.56;4957634;28;20230;-67
2023/07/22 00:19:20;;;;;;;5.23;2.23;;;;;;;15.20;92.68;149901.28;4955689;28;20781;-67
2023/07/22 00:21:53;;;;;;;3.20;2.10;;;;;;;15.27;92.16;149917.56;4954715;28;20229;-67
2023/07/22 00:24:21;;;;;;;3.60;2.07;;;;;;;15.28;91.11;149918.78;4954941;28;20230;-67
2023/07/22 00:26:53;;;;;;;3.43;1.70;;;;;;;15.45;88.51;149961.25;4959680;28;20237;-67
2023/07/22 00:29:22;;;;;;;3.97;1.90;;;;;;;15.38;88.83;149942.50;4953595;28;20230;-67
2023/07/22 00:31:53;;;;;;;5.07;2.37;;;;;;;15.31;89.23;149926.28;4972044;28;20230;-67
2023/07/22 00:34:19;;;;;;;3.53;2.30;;;;;;;15.27;90.43;149916.28;4951642;28;20664;-67
2023/07/22 00:36:50;;;;;;;3.57;2.13;;;;;;;15.23;91.28;149907.56;4954304;28;20288;-67
2023/07/22 00:39:17;;;;;;;4.90;2.07;;;;;;;15.18;91.90;149895.06;4957115;28;20226;-67
2023/07/22 00:41:44;;;;;;;5.33;1.80;;;;;;;15.14;92.58;149885.06;4954699;28;20334;-67
2023/07/22 00:44:13;;;;;;;3.57;1.90;;;;;;;15.13;93.58;149883.81;4952131;28;20241;-67
2023/07/22 00:46:41;;;;;;;2.87;2.10;;;;;;;15.13;92.98;149883.81;4964070;28;20238;-67
2023/07/22 00:49:08;;;;;;;3.20;2.17;;;;;;;15.29;90.28;149921.28;4952409;28;20233;-67
2023/07/22 00:51:35;;;;;;;5.90;2.03;;;;;;;15.32;89.77;149930.03;4964185;28;20226;-67
2023/07/22 00:54:03;;;;;;;3.00;2.07;;;;;;;15.33;90.44;149932.53;4956913;28;20241;-67
2023/07/22 00:56:34;;;;;;;3.27;1.73;;;;;;;15.37;88.47;149941.28;4951584;28;20309;-67
2023/07/22 00:59:01;;;;;;;2.60;1.77;;;;;;;15.47;86.63;149964.97;4955074;28;20231;-67
2023/07/22 01:01:28;;;;;;;3.50;2.10;;;;;;;15.44;87.93;149958.75;4963108;28;20254;-67
2023/07/22 01:03:56;;;;;;;3.20;1.83;;;;;;;15.42;87.82;149952.50;4956900;28;20286;-67
2023/07/22 01:06:24;;;;;;;4.17;2.10;;;;;;;15.34;87.97;149935.03;4959261;28;20222;-67
2023/07/22 01:08:51;;;;;;;3.60;2.00;;;;;;;15.29;88.94;149921.28;4964502;28;20234;-67
2023/07/22 01:11:17;;;;;;;2.57;1.70;;;;;;;15.21;89.33;149902.56;4955008;28;20235;-67
2023/07/22 01:13:44;;;;;;;4.53;1.90;;;;;;;15.31;88.21;149926.28;4952841;28;20237;-67
2023/07/22 01:16:11;;;;;;;4.30;2.20;;;;;;;15.33;87.64;149932.53;4962394;28;20231;-67
2023/07/22 01:18:38;;;;;;;5.03;2.30;;;;;;;15.29;88.03;149922.53;4955516;28;20256;-67
2023/07/22 01:21:07;;;;;;;4.30;2.07;;;;;;;15.18;90.72;149895.06;4960554;28;20252;-67
2023/07/22 01:23:36;;;;;;;3.40;2.03;;;;;;;15.04;91.38;149862.59;4951917;28;20230;-67
2023/07/22 01:26:03;;;;;;;2.77;1.90;;;;;;;14.93;92.96;149833.84;4959002;28;20644;-67
2023/07/22 01:28:30;;;;;;;7.97;1.97;;;;;;;14.83;94.37;149810.13;4948646;28;20227;-67
2023/07/22 01:30:56;;;;;;;5.80;2.20;;;;;;;14.75;96.08;149792.63;4963477;28;20321;-67
2023/07/22 01:33:23;;;;;;;5.83;2.23;;;;;;;14.58;96.97;149751.41;4957959;28;20230;-67
2023/07/22 01:35:50;;;;;;;3.40;2.30;;;;;;;14.44;98.80;149717.66;4957063;28;20237;-67
2023/07/22 01:38:16;;;;;;;4.83;2.20;;;;;;;14.30;98.64;149682.75;4947532;28;20218;-67
2023/07/22 01:40:44;;;;;;;5.67;2.23;;;;;;;14.16;100.00;149650.28;4959550;28;20285;-67
2023/07/22 01:43:11;;;;;;;4.00;2.17;;;;;;;14.08;100.00;149630.31;4960166;28;20226;-67
2023/07/22 01:45:38;;;;;;;4.17;2.50;;;;;;;13.97;100.00;149602.84;4955915;28;20263;-67
2023/07/22 01:48:06;;;;;;;5.17;2.10;;;;;;;13.93;100.00;149594.09;4952781;28;20239;-67
2023/07/22 01:50:32;;;;;;;4.57;1.90;;;;;;;13.83;100.00;149570.41;4954364;28;20230;-67
2023/07/22 01:52:59;;;;;;;3.93;2.07;;;;;;;13.77;100.00;149554.19;4952643;28;20236;-67
2023/07/22 01:55:25;;;;;;;4.57;2.33;;;;;;;13.70;100.00;149539.22;4953446;28;20598;-67
2023/07/22 01:57:55;;;;;;;3.00;2.03;;;;;;;13.67;100.00;149531.72;4954067;28;20235;-67
2023/07/22 02:00:21;;;;;;;3.47;2.30;;;;;;;13.65;100.00;149526.75;4952054;28;20240;-67
2023/07/22 02:02:48;;;;;;;4.90;1.93;;;;;;;13.61;100.00;149515.50;4960282;28;20239;-67
2023/07/22 02:05:14;;;;;;;3.90;2.27;;;;;;;13.53;100.00;149498.00;4949644;28;20225;-67
2023/07/22 02:07:41;;;;;;;3.50;2.37;;;;;;;13.48;100.00;149484.31;4954521;28;20233;-67
2023/07/22 02:10:09;;;;;;;5.17;2.60;;;;;;;13.48;100.00;149484.31;4960754;28;20241;-67
2023/07/22 02:12:36;;;;;;;7.83;2.27;;;;;;;13.42;100.00;149470.56;4954030;28;20245;-67
2023/07/22 02:15:04;;;;;;;4.40;2.70;;;;;;;13.37;100.00;149458.03;4963190;28;20600;-67
2023/07/22 02:17:31;;;;;;;4.37;2.27;;;;;;;13.38;100.00;149461.81;4954335;28;20607;-67
2023/07/22 02:19:58;;;;;;;7.67;2.43;;;;;;;13.34;100.00;149451.81;4958431;28;20754;-67
2023/07/22 02:22:24;;;;;;;3.63;2.50;;;;;;;13.28;100.00;149436.84;4956967;28;20242;-67
2023/07/22 02:24:51;;;;;;;3.33;2.23;;;;;;;13.24;100.00;149428.13;4955649;28;20223;-67
2023/07/22 02:27:18;;;;;;;6.47;2.53;;;;;;;13.27;100.00;149435.56;4951992;28;20252;-67
2023/07/22 02:29:44;;;;;;;4.17;2.60;;;;;;;13.38;100.00;149460.53;4962579;28;20709;-67
2023/07/22 02:32:12;;;;;;;7.00;2.47;;;;;;;13.71;100.00;149540.44;4950039;28;20259;-67
2023/07/22 02:34:39;;;;;;;5.80;2.57;;;;;;;13.97;100.00;149604.09;4957447;28;20241;-67
2023/07/22 02:37:06;;;;;;;4.00;2.70;;;;;;;13.94;100.00;149596.59;4949004;28;20713;-67
2023/07/22 02:39:32;;;;;;;4.23;2.27;;;;;;;13.91;100.00;149589.09;4953048;28;20339;-67
2023/07/22 02:42:00;;;;;;;4.30;2.20;;;;;;;13.90;100.00;149586.59;4954815;28;20232;-67
2023/07/22 02:44:27;;;;;;;6.10;2.10;;;;;;;13.97;100.00;149602.84;4959318;28;20267;-67
2023/07/22 02:46:53;;;;;;;3.87;2.40;;;;;;;13.94;100.00;149596.59;4956140;28;20231;-67
2023/07/22 02:49:21;;;;;;;3.37;2.30;;;;;;;13.90;100.00;149585.38;4958784;28;20315;-67
2023/07/22 02:51:53;;;;;;;5.57;2.47;;;;;;;13.84;100.00;149572.91;4959785;28;20231;-67
2023/07/22 02:54:20;;;;;;;6.57;1.97;;;;;;;13.80;100.00;149561.63;4947492;28;20300;-67
2023/07/22 02:57:11;;;;;;;6.03;2.20;;;;;;;13.87;100.00;149580.38;4953216;28;20238;-67
2023/07/22 02:59:38;;;;;;;5.37;2.13;;;;;;;13.96;100.00;149600.38;4951828;28;20723;-67
2023/07/22 03:02:05;;;;;;;3.70;2.00;;;;;;;14.02;100.00;149616.56;4951691;28;20315;-67
2023/07/22 03:04:33;;;;;;;4.20;2.10;;;;;;;14.07;100.00;149627.81;4963068;28;20236;-67
2023/07/22 03:07:00;;;;;;;5.03;2.50;;;;;;;14.06;100.00;149624.06;4955075;28;20726;-67
2023/07/22 03:09:26;;;;;;;5.63;2.00;;;;;;;13.98;100.00;149605.34;4950755;28;20259;-67
2023/07/22 03:11:53;;;;;;;3.63;2.03;;;;;;;13.91;100.00;149589.09;4958066;28;20228;-67
2023/07/22 03:14:21;;;;;;;4.27;2.10;;;;;;;14.21;98.52;149661.50;4953091;28;20786;-67
2023/07/22 03:16:53;;;;;;;3.77;1.90;;;;;;;14.25;97.42;149671.50;4955217;28;20322;-67
2023/07/22 03:19:20;;;;;;;2.70;1.93;;;;;;;14.36;96.82;149696.47;4954203;28;20585;-67
2023/07/22 03:21:54;;;;;;;5.83;2.40;;;;;;;14.33;96.23;149690.19;4963499;28;20228;-67
2023/07/22 03:24:21;;;;;;;4.60;2.10;;;;;;;14.39;96.86;149705.19;4943985;28;21082;-67
2023/07/22 03:26:53;;;;;;;3.13;2.20;;;;;;;14.25;97.09;149671.50;4961709;28;20239;-67
2023/07/22 03:29:19;;;;;;;5.53;2.13;;;;;;;14.25;97.97;149670.28;4955688;28;20655;-67
2023/07/22 03:31:50;;;;;;;3.10;2.17;;;;;;;14.20;97.80;149659.00;5181532;23;20228;-67
2023/07/22 03:34:17;;;;;;;4.23;2.30;;;;;;;14.20;97.79;149659.00;4981503;28;20231;-67
2023/07/22 03:36:43;;;;;;;4.20;2.07;;;;;;;14.16;98.08;149650.28;4974797;28;20239;-67
2023/07/22 03:39:11;;;;;;;5.83;2.10;;;;;;;14.14;98.26;149644.03;4980527;28;20229;-67
2023/07/22 03:41:38;;;;;;;4.23;2.20;;;;;;;14.05;98.88;149622.81;4990081;28;20233;-67
2023/07/22 03:44:04;;;;;;;2.63;1.83;;;;;;;14.02;99.16;149616.56;5001761;28;20986;-67
2023/07/22 03:46:31;;;;;;;2.20;2.00;;;;;;;13.96;99.33;149601.59;5004946;28;20232;-67
2023/07/22 03:48:58;;;;;;;3.63;2.37;;;;;;;13.99;99.48;149609.06;5005569;28;20221;-67
2023/07/22 03:51:24;;;;;;;6.00;2.13;;;;;;;13.98;99.40;149606.56;5003843;28;20246;-67
2023/07/22 03:53:51;;;;;;;5.67;2.53;;;;;;;13.98;99.48;149606.56;5012739;28;20726;-67
2023/07/22 03:56:19;;;;;;;3.87;2.23;;;;;;;14.08;99.33;149630.31;5010250;28;20281;-67
2023/07/22 03:58:45;;;;;;;2.60;1.90;;;;;;;14.09;98.47;149632.81;5022476;28;20237;-67
2023/07/22 04:01:12;;;;;;;3.23;2.20;;;;;;;14.08;98.97;149630.31;5003697;28;20238;-67
2023/07/22 04:03:39;;;;;;;4.23;2.20;;;;;;;14.02;99.59;149616.56;5007980;28;20257;-67
2023/07/22 04:06:05;;;;;;;3.07;1.83;;;;;;;13.98;100.00;149605.34;5007539;28;20224;-68
2023/07/22 04:08:32;;;;;;;3.70;2.63;;;;;;;13.94;100.00;149595.38;4998914;28;20239;-67
2023/07/22 04:10:59;;;;;;;4.03;2.60;;;;;;;13.86;100.00;149576.63;5014933;28;20257;-68
2023/07/22 04:13:27;;;;;;;4.20;1.90;;;;;;;13.82;100.00;149567.91;5004566;28;20235;-67
2023/07/22 04:15:54;;;;;;;3.20;1.90;;;;;;;13.80;100.00;149562.91;5007160;28;20233;-67
2023/07/22 04:18:22;;;;;;;4.83;2.03;;;;;;;13.73;100.00;149546.72;5003000;28;20340;-67
2023/07/22 04:20:48;;;;;;;3.03;2.27;;;;;;;13.75;100.00;149549.22;5007413;28;20258;-67
2023/07/22 04:23:15;;;;;;;6.47;2.50;;;;;;;13.69;100.00;149536.72;5003238;28;20322;-67
2023/07/22 04:25:42;;;;;;;3.87;2.27;;;;;;;13.72;100.00;149542.94;4995258;28;20240;-67
2023/07/22 04:28:10;;;;;;;7.97;2.07;;;;;;;13.70;100.00;149537.94;5004937;28;20222;-67
2023/07/22 04:30:39;;;;;;;5.70;2.60;;;;;;;13.69;100.00;149535.47;5007029;28;20227;-67
2023/07/22 04:33:10;;;;;;;6.27;2.37;;;;;;;13.70;100.00;149537.94;5002009;28;20235;-68
2023/07/22 04:35:38;;;;;;;6.87;2.23;;;;;;;13.67;100.00;149530.47;4995446;28;20226;-68
2023/07/22 04:38:05;;;;;;;4.13;2.10;;;;;;;13.67;100.00;149530.47;5005944;28;20233;-68
2023/07/22 04:40:32;;;;;;;3.67;1.80;;;;;;;13.65;100.00;149525.47;5005871;28;20229;-68
2023/07/22 04:42:58;;;;;;;3.60;2.10;;;;;;;13.66;100.00;149529.25;4998574;28;20230;-68
2023/07/22 04:45:25;;;;;;;3.07;1.93;;;;;;;13.68;100.00;149534.22;5004115;28;22737;-68
2023/07/22 04:47:53;;;;;;;3.17;2.60;;;;;;;13.65;100.00;149526.75;5007508;28;20563;-68
2023/07/22 04:50:20;;;;;;;4.33;2.47;;;;;;;13.65;100.00;149526.75;4987117;28;20237;-68
2023/07/22 04:52:48;;;;;;;2.87;1.83;;;;;;;13.65;100.00;149525.47;5006095;28;20714;-68
2023/07/22 04:55:15;;;;;;;3.33;1.93;;;;;;;13.65;100.00;149526.75;5005320;28;20233;-68
2023/07/22 04:57:44;;;;;;;4.57;2.00;;;;;;;13.67;100.00;149531.72;5006034;28;20248;-68
2023/07/22 05:00:14;;;;;;;7.00;1.90;;;;;;;13.68;100.00;149532.97;5002781;28;20286;-68
2023/07/22 05:02:42;;;;;;;4.10;2.13;;;;;;;13.70;100.00;149537.94;5021907;28;20225;-68
2023/07/22 05:05:10;;;;;;;3.27;2.07;;;;;;;13.72;100.00;149542.94;5004080;28;20225;-68
2023/07/22 05:07:36;;;;;;;4.63;2.37;;;;;;;13.73;100.00;149545.44;5006378;28;20317;-68
2023/07/22 05:10:03;;;;;;;2.87;1.80;;;;;;;13.76;100.00;149551.69;5006503;28;21167;-68
2023/07/22 05:12:30;;;;;;;4.87;2.07;;;;;;;13.77;100.00;149555.44;5004062;28;20238;-68
2023/07/22 05:14:56;;;;;;;2.47;1.83;;;;;;;13.82;100.00;149566.63;5006448;28;20230;-68
2023/07/22 05:17:23;;;;;;;3.20;2.00;;;;;;;13.81;100.00;149565.41;5003536;28;20269;-67
2023/07/22 05:19:49;;;;;;;2.60;1.70;;;;;;;13.85;100.00;149575.41;5006599;28;20641;-67
2023/07/22 05:22:17;;;;;;;3.33;2.00;;;;;;;13.84;100.00;149572.91;5002063;28;20233;-68
2023/07/22 05:24:44;;;;;;;2.90;2.00;;;;;;;13.92;100.00;149590.38;5020685;28;20294;-67
2023/07/22 05:27:10;;;;;;;6.10;2.70;;;;;;;13.96;100.00;149601.59;5003670;28;20276;-67
2023/07/22 05:29:37;;;;;;;2.80;2.00;;;;;;;14.06;100.00;149625.31;5004894;28;20238;-67
2023/07/22 05:32:05;;;;;;;4.20;1.80;;;;;;;14.18;100.00;149654.03;5006362;28;20246;-67
2023/07/22 05:34:31;;;;;;;14.73;3.57;;;;;;;14.25;100.00;149671.50;5004023;28;20227;-67
2023/07/22 05:36:58;;;;;;;13.27;3.30;;;;;;;14.40;100.00;149706.47;5005162;28;20234;-68
2023/07/22 05:39:26;;;;;;;6.17;2.30;;;;;;;14.69;100.00;149776.38;5018141;28;20239;-67
2023/07/22 05:41:54;;;;;;;5.27;2.50;;;;;;;15.01;100.00;149853.81;5006282;28;20240;-67
2023/07/22 05:44:20;;;;;;;8.47;3.47;;;;;;;15.25;100.00;149911.28;5002599;28;20235;-68
2023/07/22 05:47:11;;;;;;;5.23;3.97;;;;;;;15.53;97.46;149978.75;5003074;28;20308;-68
2023/07/22 05:49:38;;;;;;;5.63;4.17;;;;;;;15.69;94.40;150018.75;5005849;28;20620;-68
2023/07/22 05:52:05;;;;;;;7.10;3.50;;;;;;;15.77;93.90;150037.47;5005596;28;20241;-68
2023/07/22 05:54:33;;;;;;;5.03;3.50;;;;;;;16.01;93.15;150095.00;5003516;28;20238;-68
2023/07/22 05:57:00;;;;;;;7.07;4.03;;;;;;;16.05;92.77;150106.22;5005578;28;20236;-68
2023/07/22 05:59:26;;;;;;;5.43;3.60;;;;;;;16.12;91.21;150122.50;5003060;28;20298;-68
2023/07/22 06:01:53;;;;;;;5.80;3.53;;;;;;;16.29;91.86;150162.50;5005801;28;20692;-68
2023/07/22 06:04:19;;;;;;;4.97;3.60;;;;;;;16.37;90.41;150182.50;5002967;28;20347;-68
2023/07/22 06:06:53;;;;;;;4.93;3.47;;;;;;;16.64;90.12;150247.44;4992473;28;20280;-67
2023/07/22 06:09:21;;;;;;;4.27;3.17;;;;;;;16.78;88.59;150282.47;5002494;28;20352;-68
2023/07/22 06:11:54;;;;;;;6.30;2.93;;;;;;;16.85;87.50;150298.75;5018896;28;20249;-68
2023/07/22 06:14:21;;;;;;;7.67;3.00;;;;;;;17.15;87.34;150371.28;5002255;28;20252;-68
2023/07/22 06:16:53;;;;;;;6.13;2.90;;;;;;;17.26;85.86;150398.78;5004816;28;20226;-68
2023/07/22 06:19:19;;;;;;;3.83;2.73;;;;;;;17.40;87.37;150432.59;5002620;28;20288;-68
2023/07/22 06:22:12;;;;;;;3.63;2.63;;;;;;;17.71;86.32;150506.38;5002421;28;20262;-68
2023/07/22 06:24:38;;;;;;;4.23;2.70;;;;;;;17.83;85.18;150535.13;4994860;28;20229;-68
2023/07/22 06:27:06;;;;;;;11.17;4.47;;;;;;;17.98;82.88;150571.44;5027845;28;20228;-68
2023/07/22 06:29:33;;;;;;;9.20;3.80;;;;;;;18.06;83.06;150591.47;5003458;28;20233;-68
2023/07/22 06:31:59;;;;;;;7.20;3.30;;;;;;;18.31;82.87;150650.31;5004016;28;20506;-68
2023/07/22 06:34:26;;;;;;;6.73;3.20;;;;;;;18.37;81.70;150666.56;5001847;28;20242;-68
2023/07/22 06:36:53;;;;;;;5.67;3.13;;;;;;;18.53;82.10;150705.38;5005484;28;20246;-68
2023/07/22 06:39:20;;;;;;;5.63;3.20;;;;;;;18.51;78.20;150699.09;5002511;28;20237;-68
2023/07/22 06:42:13;;;;;;;5.87;3.23;;;;;;;18.48;76.44;150692.84;5002009;28;20233;-68
2023/07/22 06:44:40;;;;;;;3.30;2.60;;;;;;;18.27;80.20;150642.78;5004967;28;20242;-68
2023/07/22 06:47:06;;;;;;;6.93;2.67;;;;;;;18.43;78.24;150680.34;5002510;28;20242;-68
2023/07/22 06:49:33;;;;;;;4.83;3.27;;;;;;;18.54;78.20;150706.59;5004867;28;20233;-68
2023/07/22 06:52:01;;;;;;;4.10;3.20;;;;;;;18.85;75.67;150781.72;5005209;28;20242;-68
2023/07/22 06:54:28;;;;;;;4.07;2.73;;;;;;;18.80;76.85;150770.41;5001914;28;20253;-68
2023/07/22 06:56:54;;;;;;;6.27;2.67;;;;;;;18.70;74.66;150745.38;5005288;28;20227;-68
2023/07/22 06:59:22;;;;;;;3.73;2.60;;;;;;;18.75;75.05;150757.91;5002470;28;20240;-67
2023/07/22 07:01:53;;;;;;;3.33;2.53;;;;;;;18.83;73.33;150776.72;5003951;28;20241;-68
2023/07/22 07:04:20;;;;;;;3.23;2.50;;;;;;;18.93;72.59;150801.75;5002193;28;20704;-68
2023/07/22 07:07:13;;;;;;;5.60;3.03;;;;;;;19.12;70.86;150846.81;5002268;28;20643;-68
2023/07/22 07:09:40;;;;;;;4.73;2.70;;;;;;;18.75;72.99;150757.91;5004571;28;20330;-68
2023/07/22 07:12:08;;;;;;;7.30;2.93;;;;;;;18.71;74.84;150749.16;5000352;28;20238;-68
2023/07/22 07:14:36;;;;;;;4.80;2.40;;;;;;;18.83;75.59;150777.94;5004936;28;20236;-68
2023/07/22 07:17:03;;;;;;;3.97;2.40;;;;;;;18.79;76.85;150767.91;5003638;28;21215;-68
2023/07/22 07:19:30;;;;;;;4.57;2.60;;;;;;;18.86;77.39;150784.22;5002268;28;20238;-68
2023/07/22 07:21:56;;;;;;;5.07;2.37;;;;;;;19.20;73.43;150866.84;5009710;28;20244;-68
2023/07/22 07:24:23;;;;;;;6.37;2.77;;;;;;;19.52;71.49;150943.28;5003552;28;20245;-68
2023/07/22 07:26:53;;;;;;;6.30;2.60;;;;;;;20.03;70.35;151067.28;5008659;28;20245;-68
2023/07/22 07:29:20;;;;;;;5.17;2.67;;;;;;;20.50;68.00;151182.53;4995020;28;20235;-68
2023/07/22 07:31:54;;;;;;;4.20;2.40;;;;;;;20.72;63.86;151235.16;5006524;28;20648;-68
2023/07/22 07:34:21;;;;;;;2.83;2.17;;;;;;;20.90;63.21;151279.03;5012178;28;20606;-68
2023/07/22 07:36:53;;;;;;;4.60;2.23;;;;;;;20.65;64.63;151217.59;5008818;28;20241;-68
2023/07/22 07:39:19;;;;;;;3.33;2.67;;;;;;;20.68;66.40;151223.84;5005045;28;20303;-68
2023/07/22 07:41:46;;;;;;;4.77;2.50;;;;;;;20.73;66.52;151237.66;5008505;28;20235;-68
2023/07/22 07:44:12;;;;;;;5.77;2.20;;;;;;;20.59;64.78;151202.56;5005094;28;20228;-68
2023/07/22 07:46:39;;;;;;;5.23;2.40;;;;;;;20.09;69.67;151081.06;5005328;28;20223;-66
2023/07/22 07:49:07;;;;;;;2.67;2.23;;;;;;;19.95;71.39;151048.47;5005652;28;20234;-66
2023/07/22 07:51:34;;;;;;;3.43;2.17;;;;;;;19.91;71.18;151039.75;5007602;28;20236;-66
2023/07/22 07:54:00;;;;;;;3.10;2.27;;;;;;;20.19;68.45;151106.09;5006726;28;20235;-66
2023/07/22 07:56:27;;;;;;;4.37;2.50;;;;;;;20.35;68.01;151144.94;5005388;28;20235;-66
2023/07/22 07:58:55;;;;;;;2.60;2.10;;;;;;;20.59;67.21;151202.56;5008631;28;20571;-66
2023/07/22 08:01:22;;;;;;;4.47;2.70;;;;;;;20.83;65.73;151260.25;5004374;28;20245;-66
2023/07/22 08:03:48;;;;;;;4.03;2.57;;;;;;;21.09;64.93;151324.16;5006867;28;20374;-66
2023/07/22 08:06:16;;;;;;;4.23;2.33;;;;;;;21.09;61.23;151324.16;5004078;28;20232;-66
2023/07/22 08:08:43;;;;;;;3.47;1.80;;;;;;;21.50;60.18;151423.19;5006960;28;20231;-66
2023/07/22 08:11:13;;;;;;;3.03;2.00;;;;;;;21.74;60.34;151482.13;5017296;28;20236;-66
2023/07/22 08:13:40;;;;;;;4.23;1.90;;;;;;;22.04;59.38;151553.63;5007149;28;20226;-66
2023/07/22 08:16:08;;;;;;;3.60;1.80;;;;;;;22.41;58.12;151643.91;5003895;28;20229;-68
2023/07/22 08:18:36;;;;;;;4.57;2.27;;;;;;;22.41;58.54;151645.19;5007841;28;20697;-68
2023/07/22 08:21:04;;;;;;;3.27;1.90;;;;;;;22.50;60.54;151666.53;5008259;28;20235;-68
2023/07/22 08:23:32;;;;;;;6.10;1.93;;;;;;;22.49;60.34;151664.03;5004692;28;20304;-68
2023/07/22 08:25:58;;;;;;;3.43;2.63;;;;;;;22.05;59.96;151557.38;5007739;28;20771;-68
2023/07/22 08:28:25;;;;;;;4.27;2.50;;;;;;;22.45;60.09;151653.97;5005082;28;20244;-68
2023/07/22 08:30:55;;;;;;;3.83;2.10;;;;;;;22.56;59.49;151681.59;5006345;28;20678;-68
2023/07/22 08:33:23;;;;;;;4.43;2.17;;;;;;;21.80;60.15;151497.19;5003456;28;20261;-66
2023/07/22 08:35:50;;;;;;;3.47;2.37;;;;;;;22.14;60.42;151577.44;5006974;28;20474;-66
2023/07/22 08:38:16;;;;;;;3.83;2.10;;;;;;;22.15;61.11;151581.22;5004183;28;20537;-66
2023/07/22 08:40:44;;;;;;;3.83;2.20;;;;;;;22.35;60.27;151628.84;5005960;28;20235;-66
2023/07/22 08:43:12;;;;;;;6.47;2.13;;;;;;;22.31;59.00;151620.09;5004391;28;20273;-66
2023/07/22 08:45:40;;;;;;;3.20;2.20;;;;;;;22.16;60.08;151583.75;5005514;28;20251;-66
2023/07/22 08:48:09;;;;;;;3.87;2.00;;;;;;;21.73;60.07;151479.63;5004092;28;20696;-66
2023/07/22 08:50:44;;;;;;;4.27;2.10;;;;;;;22.25;59.01;151606.31;5007048;28;20251;-66
2023/07/22 08:53:11;;;;;;;3.50;1.90;;;;;;;22.26;59.09;151608.78;5004059;28;20235;-66
2023/07/22 08:55:39;;;;;;;4.40;2.50;;;;;;;22.01;60.49;151546.13;5007288;28;20226;-66
2023/07/22 08:58:09;;;;;;;7.53;2.30;;;;;;;21.86;62.13;151509.72;5003698;28;20771;-66
2023/07/22 09:00:36;;;;;;;5.17;2.37;;;;;;;22.09;59.35;151567.41;5005134;28;20292;-66
2023/07/22 09:03:04;;;;;;;2.90;2.10;;;;;;;21.78;60.47;151490.94;5005627;28;20631;-68
2023/07/22 09:05:32;;;;;;;2.80;2.00;;;;;;;21.87;61.17;151512.22;5003130;28;20249;-68
2023/07/22 09:07:59;;;;;;;3.80;2.20;;;;;;;21.90;59.22;151521.03;5006868;28;20317;-68
2023/07/22 09:10:28;;;;;;;6.40;2.60;;;;;;;21.91;60.37;151523.53;4992206;28;20234;-68
2023/07/22 09:12:55;;;;;;;5.37;2.40;;;;;;;21.95;62.79;151532.28;5006250;28;20685;-66
2023/07/22 09:15:24;;;;;;;3.50;2.27;;;;;;;21.97;61.58;151538.59;5002912;28;20236;-66
2023/07/22 09:17:50;;;;;;;3.63;2.10;;;;;;;22.18;60.87;151587.47;5006472;28;20300;-66
2023/07/22 09:20:17;;;;;;;2.40;1.73;;;;;;;22.41;61.06;151643.91;5004112;28;20219;-66
2023/07/22 09:22:45;;;;;;;2.93;2.17;;;;;;;22.41;59.02;151645.19;5006479;28;20812;-66
2023/07/22 09:25:16;;;;;;;3.90;2.00;;;;;;;22.29;57.30;151615.06;5003230;28;20248;-66
2023/07/22 09:27:43;;;;;;;3.40;2.10;;;;;;;22.16;57.93;151583.75;5006137;28;20229;-66
2023/07/22 09:30:24;;;;;;;3.03;1.83;;;;;;;22.11;58.14;151571.19;5000855;28;20241;-66
2023/07/22 09:32:51;;;;;;;5.50;2.00;;;;;;;22.26;58.52;151608.78;5006005;28;20320;-66
2023/07/22 09:35:18;;;;;;;2.67;1.90;;;;;;;22.41;54.47;151643.91;5002373;28;20214;-66
2023/07/22 09:37:45;;;;;;;2.30;1.70;;;;;;;22.59;54.95;151687.88;5006312;28;20327;-66
2023/07/22 09:40:17;;;;;;;3.43;1.70;;;;;;;23.07;53.28;151804.53;5003154;28;20234;-66
2023/07/22 09:42:46;;;;;;;5.30;1.80;;;;;;;23.13;54.08;151819.59;5005640;28;20244;-66
2023/07/22 09:45:12;;;;;;;2.43;1.27;;;;;;;22.92;48.77;151768.13;5001706;28;20231;-68
2023/07/22 09:47:44;;;;;;;2.17;1.60;;;;;;;;;;5006587;28;20230;-68
2023/07/22 09:50:15;;;;;;;2.60;1.40;;;;;;;22.47;51.34;151659.00;4990476;28;20777;-68
2023/07/22 09:52:45;;;;;;;3.17;1.50;;;;;;;22.48;51.67;151661.50;5020870;28;20240;-68
2023/07/22 09:55:13;;;;;;;2.37;1.73;;;;;;;22.36;52.21;151631.34;5002946;28;20217;-68
2023/07/22 09:57:44;;;;;;;2.53;1.60;;;;;;;22.76;52.57;151728.03;5006100;28;20223;-68
2023/07/22 10:00:12;;;;;;;1.80;1.30;;;;;;;22.95;50.37;151775.66;4991596;28;20272;-66
2023/07/22 10:02:41;;;;;;;3.70;2.00;;;;;;;22.33;52.18;151625.13;4996195;28;20262;-67
2023/07/22 10:05:13;;;;;;;1.93;1.57;;;;;;;22.69;50.79;151712.97;5002811;28;20257;-68
2023/07/22 10:07:44;;;;;;;3.40;1.43;;;;;;;23.15;51.50;151824.63;5005851;28;20318;-68
2023/07/22 10:10:11;;;;;;;1.90;1.20;;;;;;;23.55;47.88;151920.00;5002975;28;20265;-68
2023/07/22 10:12:40;;;;;;;3.47;1.47;;;;;;;23.36;44.66;151874.81;5006114;28;20243;-68
2023/07/22 10:15:08;;;;;;;2.93;1.40;;;;;;;23.85;43.96;151992.81;4989767;28;20232;-68
2023/07/22 10:17:35;;;;;;;2.90;1.30;;;;;;;23.46;45.69;151898.69;5005431;28;20253;-68
2023/07/22 10:20:05;;;;;;;2.40;1.50;;;;;;;24.18;46.52;152074.44;5005861;28;20232;-68
2023/07/22 10:22:36;;;;;;;3.23;1.10;;;;;;;23.88;43.52;152001.56;5001575;28;20301;-68
2023/07/22 10:25:04;;;;;;;2.67;1.03;;;;;;;23.64;44.65;151942.59;5005248;28;20237;-68
2023/07/22 10:27:32;;;;;;;1.70;1.10;;;;;;;23.72;44.71;151962.69;5002794;28;20235;-68
2023/07/22 10:30:00;;;;;;;2.20;1.30;;;;;;;23.56;45.88;151922.50;5003129;28;20234;-68
2023/07/22 10:32:33;;;;;;;2.70;1.37;;;;;;;23.67;44.01;151948.88;5000460;28;20249;-68
2023/07/22 10:34:59;;;;;;;1.73;1.03;;;;;;;24.32;42.92;152108.34;5005052;28;20717;-68
2023/07/22 10:37:31;;;;;;;3.23;1.10;;;;;;;25.11;41.76;152299.25;5002738;28;20280;-68
2023/07/22 10:40:02;;;;;;;3.27;1.20;;;;;;;24.82;42.74;152228.91;5005165;28;20230;-66
2023/07/22 10:42:32;;;;;;;2.43;1.40;;;;;;;24.76;42.93;152215.13;5002351;28;20707;-66
2023/07/22 10:45:01;;;;;;;3.10;1.30;;;;;;;25.35;42.02;152357.03;5004947;28;20645;-66
2023/07/22 10:47:36;;;;;;;1.87;1.27;;;;;;;25.54;40.80;152402.28;4990952;28;20239;-66
2023/07/22 10:50:09;;;;;;;2.13;1.47;;;;;;;25.76;42.73;152457.56;5005014;28;20247;-66
2023/07/22 10:52:42;;;;;;;2.40;1.50;;;;;;;25.08;41.42;152290.44;5000728;28;20311;-66
2023/07/22 10:55:17;;;;;;;2.10;1.30;;;;;;;25.90;41.45;152490.22;5000422;28;20233;-66
2023/07/22 10:57:52;;;;;;;1.97;1.27;;;;;;;25.19;38.48;152319.34;5019686;28;20573;-66
2023/07/22 11:00:21;;;;;;;2.40;1.33;;;;;;;25.32;37.76;152349.50;5000687;28;20240;-66
2023/07/22 11:03:08;;;;;;;2.13;1.40;;;;;;;25.42;38.80;152373.34;5004646;28;20265;-66
2023/07/22 11:05:48;;;;;;;1.70;1.20;;;;;;;25.07;38.99;152289.22;5001922;28;20228;-66
2023/07/22 11:08:15;;;;;;;1.87;1.20;;;;;;;25.76;36.56;152457.56;5000961;28;20226;-66
2023/07/22 11:10:55;;;;;;;1.50;1.37;;;;;;;25.71;38.10;152445.00;5004598;28;20237;-66
2023/07/22 11:13:29;;;;;;;2.10;1.50;;;;;;;25.77;35.70;152458.84;5001665;28;20688;-66
2023/07/22 11:15:59;;;;;;;2.43;1.17;;;;;;;25.39;36.61;152367.09;5003041;28;20388;-66
2023/07/22 11:18:37;;;;;;;1.57;1.30;;;;;;;24.76;36.67;152215.13;5001546;28;20239;-66
2023/07/22 11:21:08;;;;;;;2.77;1.40;;;;;;;24.59;39.81;152173.59;5003971;28;20344;-66
2023/07/22 11:23:35;;;;;;;2.60;1.50;;;;;;;24.82;37.52;152228.91;5001144;28;20269;-66
2023/07/22 11:26:04;;;;;;;2.77;1.50;;;;;;;25.09;39.62;152294.22;5002600;28;20239;-67
2023/07/22 11:28:31;;;;;;;2.10;1.43;;;;;;;25.40;39.29;152369.59;5001263;28;20242;-66
2023/07/22 11:30:58;;;;;;;2.00;1.30;;;;;;;25.99;37.46;152512.84;5003534;28;20249;-66